createdAt,value
2022-10-23T13:50:22.312Z,34.13
2022-10-23T13:52:49.158Z,35.28
2022-10-23T13:55:26.341Z,36.58
2022-10-23T13:57:53.579Z,36.20
2022-10-23T14:00:20.628Z,37.85
2022-10-23T14:02:47.575Z,37.80
2022-10-23T14:05:14.507Z,34.97
2022-10-23T14:07:41.526Z,37.92
2022-10-23T14:10:08.906Z,34.45
2022-10-23T14:12:40.774Z,39.45
2022-10-23T14:15:08.538Z,34.83
2022-10-23T14:17:36.248Z,32.45
2022-10-23T14:20:06.139Z,38.67
2022-10-23T14:22:33.357Z,31.63
2022-10-23T14:25:00.341Z,29.73
2022-10-23T14:27:59.629Z,31.25
2022-10-23T14:30:26.477Z,36.20
2022-10-23T14:32:53.540Z,36.85
2022-10-23T14:35:20.516Z,37.03
2022-10-23T14:37:47.393Z,32.55
2022-10-23T14:40:14.323Z,39.08
2022-10-23T14:42:41.213Z,35.15
2022-10-23T14:45:08.750Z,38.97
2022-10-23T14:47:36.238Z,33.40
2022-10-23T14:50:04.645Z,33.88
2022-10-23T14:52:31.611Z,33.80
2022-10-23T14:54:58.457Z,35.10
2022-10-23T14:57:25.399Z,34.00
2022-10-23T14:59:52.322Z,37.42
2022-10-23T15:02:19.334Z,32.58
2022-10-23T15:04:46.211Z,31.58
2022-10-23T15:07:17.955Z,32.70
2022-10-23T15:09:45.963Z,30.08
2022-10-23T15:12:13.070Z,29.60
2022-10-23T15:14:39.981Z,26.85
2022-10-23T15:17:14.542Z,28.52
2022-10-23T15:19:42.658Z,32.08
2022-10-23T15:22:09.723Z,30.80
2022-10-23T15:24:36.621Z,32.42
2022-10-23T15:27:03.763Z,29.30
2022-10-23T15:29:30.590Z,31.20
2022-10-23T15:31:58.578Z,24.83
2022-10-23T15:34:27.906Z,29.23
2022-10-23T15:36:56.309Z,26.05
2022-10-23T15:39:25.557Z,23.73
2022-10-23T15:41:54.980Z,26.65
2022-10-23T15:44:24.568Z,28.40
2022-10-23T15:46:52.188Z,28.67
2022-10-23T15:49:20.028Z,30.30
2022-10-23T15:51:47.142Z,33.38
2022-10-23T15:54:18.866Z,29.02
2022-10-23T15:56:52.287Z,31.30
2022-10-23T15:59:21.083Z,31.67
2022-10-23T16:01:48.881Z,32.33
2022-10-23T16:04:16.308Z,34.35
2022-10-23T16:06:44.153Z,31.92
2022-10-23T16:09:11.470Z,34.15
2022-10-23T16:11:39.765Z,31.45
2022-10-23T16:14:07.351Z,29.92
2022-10-23T16:16:34.620Z,31.98
2022-10-23T16:19:03.459Z,30.42
2022-10-23T16:21:33.205Z,35.05
2022-10-23T16:24:01.939Z,31.63
2022-10-23T16:26:30.450Z,31.42
2022-10-23T16:28:59.871Z,35.95
2022-10-23T16:31:28.068Z,31.17
2022-10-23T16:36:24.258Z,39.35
2022-10-23T16:39:17.067Z,40.78
2022-10-23T16:43:07.586Z,30.52
2022-10-23T16:45:41.525Z,33.38
2022-10-23T16:48:08.454Z,32.75
2022-10-23T16:53:09.767Z,35.13
2022-10-23T16:55:40.689Z,32.83
2022-10-23T16:58:07.709Z,32.45
2022-10-23T17:00:37.618Z,32.13
2022-10-23T17:03:05.182Z,37.00
2022-10-23T17:05:35.712Z,29.08
2022-10-23T17:08:02.588Z,36.58
2022-10-23T17:10:29.493Z,35.13
2022-10-23T17:12:56.518Z,37.08
2022-10-23T17:15:23.958Z,35.95
2022-10-23T17:17:50.973Z,37.10
2022-10-23T17:20:17.897Z,32.40
2022-10-23T17:22:44.862Z,31.05
2022-10-23T17:25:11.721Z,33.45
2022-10-23T17:27:38.649Z,33.10
2022-10-23T17:30:10.436Z,50.97
2022-10-23T17:32:39.348Z,35.90
2022-10-23T17:35:07.088Z,31.50
2022-10-23T17:37:34.008Z,31.63
2022-10-23T17:40:02.605Z,34.95
2022-10-23T17:42:29.653Z,34.58
2022-10-23T17:44:56.600Z,33.72
2022-10-23T17:47:23.497Z,34.42
2022-10-23T17:49:50.430Z,33.65
2022-10-23T17:52:17.437Z,33.90
2022-10-23T17:54:44.452Z,35.10
2022-10-23T17:57:11.398Z,29.15
2022-10-23T17:59:39.132Z,28.63
2022-10-23T18:02:07.139Z,31.17
2022-10-23T18:04:34.897Z,33.17
2022-10-23T18:07:01.826Z,27.65
2022-10-23T18:09:28.824Z,29.30
2022-10-23T18:11:55.824Z,29.30
2022-10-23T18:14:24.338Z,28.38
2022-10-23T18:16:54.880Z,28.45
2022-10-23T18:19:21.878Z,30.85
2022-10-23T18:21:49.054Z,28.27
2022-10-23T18:24:16.446Z,28.45
2022-10-23T18:26:43.358Z,28.10
2022-10-23T18:29:11.691Z,31.98
2022-10-23T18:31:39.202Z,27.80
2022-10-23T18:34:09.086Z,30.95
2022-10-23T18:36:38.951Z,32.28
2022-10-23T18:39:08.600Z,34.35
2022-10-23T18:41:41.762Z,33.45
2022-10-23T18:44:09.822Z,33.05
2022-10-23T18:46:37.127Z,39.80
2022-10-23T18:49:04.430Z,34.42
2022-10-23T18:51:34.369Z,34.22
2022-10-23T18:54:08.614Z,39.08
2022-10-23T18:56:36.125Z,39.42
2022-10-23T18:59:05.796Z,37.10
2022-10-23T19:01:34.364Z,37.80
2022-10-23T19:04:02.352Z,37.47
2022-10-23T19:06:30.922Z,38.97
2022-10-23T19:08:57.995Z,37.28
2022-10-23T19:11:27.157Z,38.00
2022-10-23T19:13:54.541Z,44.03
2022-10-23T19:16:45.468Z,39.90
2022-10-23T19:19:23.126Z,41.35
2022-10-23T19:21:50.354Z,42.88
2022-10-23T19:24:24.125Z,41.45
2022-10-23T19:26:51.210Z,42.97
2022-10-23T19:29:21.788Z,50.50
2022-10-23T19:31:50.011Z,50.80
2022-10-23T19:34:19.985Z,50.92
2022-10-23T19:36:48.104Z,53.63
2022-10-23T19:39:15.213Z,54.00
2022-10-23T19:41:42.315Z,51.63
2022-10-23T19:44:09.321Z,53.22
2022-10-23T19:46:37.085Z,55.78
2022-10-23T19:49:04.621Z,54.53
2022-10-23T19:51:31.869Z,53.83
2022-10-23T19:53:59.333Z,61.17
2022-10-23T19:56:26.462Z,56.58
2022-10-23T19:58:54.076Z,63.78
2022-10-23T20:01:24.326Z,54.47
2022-10-23T20:03:51.928Z,55.38
2022-10-23T20:06:25.672Z,59.88
2022-10-23T20:08:52.956Z,58.33
2022-10-23T20:11:22.942Z,59.95
2022-10-23T20:13:50.447Z,58.15
2022-10-23T20:16:25.226Z,57.08
2022-10-23T20:18:52.880Z,61.50
2022-10-23T20:21:19.971Z,57.42
2022-10-23T20:23:47.585Z,55.05
2022-10-23T20:26:17.566Z,54.17
2022-10-23T20:28:47.036Z,53.20
2022-10-23T20:31:15.900Z,51.90
2022-10-23T20:33:42.869Z,52.08
2022-10-23T20:36:26.983Z,51.60
2022-10-23T20:38:54.472Z,50.92
2022-10-23T20:41:21.855Z,49.47
2022-10-23T20:43:48.835Z,50.10
2022-10-23T20:46:15.822Z,54.08
2022-10-23T20:48:44.581Z,49.67
2022-10-23T20:51:15.114Z,52.17
2022-10-23T20:53:43.895Z,49.63
2022-10-23T20:56:15.523Z,51.13
2022-10-23T20:58:42.671Z,52.05
2022-10-23T21:01:12.832Z,51.88
2022-10-23T21:03:40.105Z,53.42
2022-10-23T21:06:13.095Z,53.22
2022-10-23T21:08:40.654Z,56.17
2022-10-23T21:11:10.333Z,52.47
2022-10-23T21:13:37.386Z,60.47
2022-10-23T21:16:14.725Z,51.47
2022-10-23T21:18:46.007Z,55.55
2022-10-23T21:21:17.095Z,58.90
2022-10-23T21:23:44.233Z,54.60
2022-10-23T21:26:11.080Z,53.33
2022-10-23T21:28:38.000Z,53.33
2022-10-23T21:31:07.920Z,52.90
2022-10-23T21:33:37.058Z,53.47
2022-10-23T21:36:13.454Z,52.75
2022-10-23T21:38:40.909Z,57.08
2022-10-23T21:41:13.876Z,54.17
2022-10-23T21:43:41.693Z,59.38
2022-10-23T21:46:17.078Z,56.40
2022-10-23T21:48:44.198Z,60.40
2022-10-23T21:51:24.090Z,52.55
2022-10-23T21:53:52.613Z,54.10
2022-10-23T21:56:38.067Z,52.72
2022-10-23T21:59:13.393Z,53.20
2022-10-23T22:01:43.239Z,55.17
2022-10-23T22:04:11.976Z,57.47
2022-10-23T22:06:39.073Z,52.13
